createdAt,value
2023-05-08T00:01:48.493Z,0.55
2023-05-08T00:04:51.032Z,0.20
2023-05-08T00:07:53.724Z,0.20
2023-05-08T00:10:56.200Z,0.30
2023-05-08T00:13:58.677Z,0.30
2023-05-08T00:17:02.430Z,0.30
2023-05-08T00:20:05.541Z,0.30
2023-05-08T00:23:10.821Z,0.40
2023-05-08T00:26:13.186Z,0.20
2023-05-08T00:29:16.003Z,0.20
2023-05-08T00:32:18.580Z,0.40
2023-05-08T00:35:21.381Z,0.20
2023-05-08T00:38:23.834Z,0.20
2023-05-08T00:41:26.312Z,0.30
2023-05-08T00:44:28.785Z,0.20
2023-05-08T00:47:32.561Z,0.20
2023-05-08T00:50:36.125Z,0.25
2023-05-08T00:53:43.299Z,0.23
2023-05-08T00:56:46.141Z,0.20
2023-05-08T00:59:50.098Z,0.20
2023-05-08T01:02:52.679Z,0.32
2023-05-08T01:05:55.175Z,0.30
2023-05-08T01:08:58.481Z,0.20
2023-05-08T01:12:17.767Z,0.20
2023-05-08T01:15:24.113Z,0.20
2023-05-08T01:18:41.968Z,0.20
2023-05-08T01:22:01.075Z,0.30
2023-05-08T01:25:12.716Z,0.20
2023-05-08T01:28:15.321Z,0.20
2023-05-08T01:31:26.312Z,0.20
2023-05-08T01:34:33.680Z,0.30
2023-05-08T01:37:49.276Z,0.30
2023-05-08T01:41:03.326Z,0.20
2023-05-08T01:44:22.695Z,0.20
2023-05-08T01:47:30.956Z,0.20
2023-05-08T01:50:38.468Z,0.20
2023-05-08T01:53:52.207Z,0.20
2023-05-08T01:56:59.600Z,0.30
2023-05-08T02:00:04.303Z,0.20
2023-05-08T02:03:14.851Z,0.20
2023-05-08T02:06:21.147Z,0.20
2023-05-08T02:09:25.901Z,0.20
2023-05-08T02:12:29.803Z,0.33
2023-05-08T02:15:36.020Z,0.20
2023-05-08T02:18:40.203Z,0.20
2023-05-08T02:21:45.368Z,0.20
2023-05-08T02:24:48.756Z,0.30
2023-05-08T02:27:54.047Z,0.20
2023-05-08T02:30:58.861Z,0.20
2023-05-08T02:34:03.856Z,0.20
2023-05-08T02:37:06.386Z,0.30
2023-05-08T02:40:11.997Z,0.20
2023-05-08T02:43:14.691Z,0.30
2023-05-08T02:46:41.809Z,0.70
2023-05-08T02:50:06.614Z,0.20
2023-05-08T02:53:16.156Z,0.20
2023-05-08T02:56:28.356Z,0.20
2023-05-08T02:59:42.544Z,0.20
2023-05-08T03:02:52.622Z,0.20
2023-05-08T03:05:57.897Z,0.20
2023-05-08T03:09:02.940Z,0.20
2023-05-08T03:12:12.970Z,0.47
2023-05-08T03:15:21.612Z,0.20
2023-05-08T03:18:31.104Z,0.20
2023-05-08T03:21:37.351Z,0.45
2023-05-08T03:24:42.860Z,0.30
2023-05-08T03:27:46.247Z,0.20
2023-05-08T03:30:50.717Z,0.20
2023-05-08T03:33:54.892Z,0.20
2023-05-08T03:36:57.493Z,0.20
2023-05-08T03:40:00.144Z,0.25
2023-05-08T03:43:03.791Z,0.20
2023-05-08T03:46:07.202Z,0.30
2023-05-08T03:49:11.915Z,0.20
2023-05-08T03:52:15.297Z,0.20
2023-05-08T03:55:17.942Z,0.20
2023-05-08T03:58:31.475Z,0.20
2023-05-08T04:02:10.342Z,0.43
2023-05-08T04:05:30.450Z,0.20
2023-05-08T04:08:44.599Z,0.20
2023-05-08T04:11:52.327Z,0.20
2023-05-08T04:15:06.161Z,0.20
2023-05-08T04:18:16.211Z,0.40
2023-05-08T04:21:23.233Z,0.40
2023-05-08T04:24:28.999Z,0.20
2023-05-08T04:27:32.452Z,0.25
2023-05-08T04:30:35.665Z,0.20
2023-05-08T04:33:38.874Z,0.20
2023-05-08T04:36:41.992Z,0.20
2023-05-08T04:39:45.203Z,0.20
2023-05-08T04:42:48.285Z,0.20
2023-05-08T04:45:53.832Z,0.30
2023-05-08T04:48:56.502Z,0.40
2023-05-08T04:51:58.942Z,0.20
2023-05-08T04:55:02.361Z,0.20
2023-05-08T04:58:06.788Z,0.20
2023-05-08T05:01:09.329Z,0.20
2023-05-08T05:04:11.828Z,0.50
2023-05-08T05:07:14.358Z,0.20
2023-05-08T05:10:17.165Z,0.20
2023-05-08T05:13:20.089Z,0.20
2023-05-08T05:16:22.760Z,0.20
2023-05-08T05:19:25.536Z,0.20
2023-05-08T05:22:28.916Z,0.23
2023-05-08T05:25:32.401Z,0.20
2023-05-08T05:28:35.514Z,0.20
2023-05-08T05:31:38.152Z,0.20
2023-05-08T05:34:40.961Z,0.30
2023-05-08T05:37:43.453Z,0.30
2023-05-08T05:40:46.585Z,0.38
2023-05-08T05:43:49.472Z,0.30
2023-05-08T05:46:52.134Z,0.30
2023-05-08T05:49:54.970Z,0.30
2023-05-08T05:52:57.678Z,0.20
2023-05-08T05:56:01.464Z,0.38
2023-05-08T05:59:05.272Z,0.30
2023-05-08T06:02:10.736Z,0.20
2023-05-08T06:05:15.300Z,0.20
2023-05-08T06:08:19.097Z,0.43
2023-05-08T06:11:22.638Z,0.30
2023-05-08T06:14:25.080Z,0.20
2023-05-08T06:17:27.460Z,0.20
2023-05-08T06:20:29.975Z,0.20
2023-05-08T06:23:32.885Z,0.20
2023-05-08T06:26:35.261Z,0.20
2023-05-08T06:29:38.058Z,0.20
2023-05-08T06:32:40.693Z,0.30
2023-05-08T06:35:47.569Z,0.20
2023-05-08T06:38:50.053Z,0.20
2023-05-08T06:41:52.493Z,0.35
2023-05-08T06:45:04.852Z,0.20
2023-05-08T06:48:07.851Z,0.20
2023-05-08T06:51:10.660Z,0.30
2023-05-08T06:54:13.126Z,0.30
2023-05-08T06:57:16.388Z,0.20
2023-05-08T07:00:19.174Z,0.40
2023-05-08T07:03:21.686Z,0.28
2023-05-08T07:06:24.172Z,0.40
2023-05-08T07:09:26.853Z,0.27
2023-05-08T07:12:29.317Z,0.20
2023-05-08T07:15:32.307Z,0.38
2023-05-08T07:18:34.719Z,0.30
2023-05-08T07:21:37.544Z,0.30
2023-05-08T07:24:49.448Z,0.20
2023-05-08T07:27:51.990Z,0.20
2023-05-08T07:30:54.838Z,0.30
2023-05-08T07:33:58.006Z,0.20
2023-05-08T07:37:00.691Z,0.30
2023-05-08T07:40:03.762Z,0.53
2023-05-08T07:43:06.330Z,0.20
2023-05-08T07:46:09.306Z,0.30
2023-05-08T07:49:12.335Z,0.30
2023-05-08T07:52:14.719Z,0.40
2023-05-08T07:55:18.149Z,0.87
2023-05-08T07:58:22.055Z,0.40
2023-05-08T08:01:26.355Z,0.45
2023-05-08T08:04:29.266Z,0.30
2023-05-08T08:07:34.853Z,0.30
2023-05-08T08:10:37.367Z,0.60
2023-05-08T08:13:39.718Z,0.30
2023-05-08T08:16:42.983Z,0.40
2023-05-08T08:19:45.457Z,0.32
2023-05-08T08:22:48.227Z,0.30
2023-05-08T08:25:51.503Z,0.30
2023-05-08T08:28:54.398Z,0.30
2023-05-08T08:31:56.862Z,0.50
2023-05-08T08:34:59.829Z,0.43
2023-05-08T08:38:02.491Z,0.30
2023-05-08T08:41:04.992Z,0.30
2023-05-08T08:44:08.018Z,0.40
2023-05-08T08:47:12.420Z,0.30
2023-05-08T08:50:15.974Z,0.30
2023-05-08T08:53:29.817Z,0.40
2023-05-08T08:56:36.174Z,0.50
2023-05-08T08:59:39.358Z,0.30
2023-05-08T09:02:41.959Z,0.30
2023-05-08T09:05:45.514Z,0.38
2023-05-08T09:08:48.503Z,0.73
2023-05-08T09:11:53.424Z,0.40
2023-05-08T09:14:55.945Z,0.52
2023-05-08T09:17:58.937Z,0.35
2023-05-08T09:21:02.487Z,0.30
2023-05-08T09:24:05.736Z,0.43
2023-05-08T09:27:21.387Z,0.40
2023-05-08T09:30:24.007Z,0.30
2023-05-08T09:33:28.484Z,0.40
2023-05-08T09:36:32.147Z,0.35
2023-05-08T09:39:34.841Z,0.40
2023-05-08T09:42:40.645Z,0.40
2023-05-08T09:45:43.234Z,0.50
2023-05-08T09:48:46.066Z,0.50
2023-05-08T09:51:56.007Z,0.30
2023-05-08T09:55:13.030Z,0.30
2023-05-08T09:58:15.881Z,0.40
2023-05-08T10:01:36.414Z,0.40
2023-05-08T10:04:39.192Z,0.40
2023-05-08T10:07:41.635Z,0.40
2023-05-08T10:10:44.425Z,0.30
2023-05-08T10:13:47.820Z,0.33
2023-05-08T10:16:54.544Z,0.40
2023-05-08T10:20:02.258Z,0.40
2023-05-08T10:23:11.318Z,0.40
2023-05-08T10:26:19.201Z,0.50
2023-05-08T10:29:31.189Z,0.40
2023-05-08T10:32:58.436Z,0.43
2023-05-08T10:36:02.099Z,0.40
2023-05-08T10:39:05.466Z,0.43
2023-05-08T10:42:08.161Z,0.47
2023-05-08T10:45:12.015Z,0.40
2023-05-08T10:48:34.095Z,0.40
2023-05-08T10:51:55.926Z,0.45
2023-05-08T10:55:04.591Z,0.40
2023-05-08T10:58:15.805Z,0.40
2023-05-08T11:01:18.776Z,0.40
2023-05-08T11:04:23.325Z,0.50
2023-05-08T11:07:59.111Z,0.47
2023-05-08T11:11:05.292Z,0.30
2023-05-08T11:14:07.875Z,0.50
2023-05-08T11:17:11.218Z,0.33
2023-05-08T11:20:13.829Z,0.40
2023-05-08T11:23:29.652Z,0.50
2023-05-08T11:26:42.390Z,0.40
2023-05-08T11:29:45.185Z,0.40
2023-05-08T11:33:06.783Z,0.40
2023-05-08T11:36:22.339Z,0.35
2023-05-08T11:39:24.987Z,0.60
2023-05-08T11:42:27.455Z,0.50
2023-05-08T11:45:30.815Z,0.50
2023-05-08T11:48:34.111Z,0.50
2023-05-08T11:51:38.408Z,0.50
2023-05-08T11:54:41.021Z,0.43
2023-05-08T11:57:43.476Z,0.40
2023-05-08T12:00:47.784Z,0.53
2023-05-08T12:04:00.629Z,0.50
2023-05-08T12:07:03.185Z,0.50
2023-05-08T12:10:06.318Z,0.43
2023-05-08T12:13:19.886Z,0.50
2023-05-08T12:16:24.571Z,0.65
2023-05-08T12:19:27.136Z,0.40
2023-05-08T12:22:29.694Z,0.50
2023-05-08T12:25:32.551Z,0.50
2023-05-08T12:28:35.946Z,0.80
2023-05-08T12:31:39.269Z,0.50
2023-05-08T12:34:41.860Z,0.83
2023-05-08T12:37:45.614Z,0.60
2023-05-08T12:40:55.655Z,0.85
2023-05-08T12:43:58.150Z,0.68
2023-05-08T12:47:00.865Z,0.73
2023-05-08T12:50:03.713Z,0.70
2023-05-08T12:53:08.462Z,0.73
2023-05-08T12:56:11.076Z,0.60
2023-05-08T12:59:13.629Z,0.70
2023-05-08T13:02:26.457Z,0.80
2023-05-08T13:05:29.647Z,0.60
2023-05-08T13:08:37.497Z,0.80
2023-05-08T13:11:40.039Z,0.70
2023-05-08T13:14:42.634Z,0.80
2023-05-08T13:17:46.428Z,0.90
2023-05-08T13:20:49.709Z,0.90
2023-05-08T13:23:52.176Z,1.20
2023-05-08T13:26:54.616Z,0.80
2023-05-08T13:29:57.081Z,0.80
2023-05-08T13:33:00.520Z,1.00
2023-05-08T13:36:04.119Z,0.97
2023-05-08T13:39:06.638Z,1.33
2023-05-08T13:42:09.067Z,1.10
2023-05-08T13:45:14.487Z,1.10
2023-05-08T13:48:17.392Z,1.25
2023-05-08T13:51:19.934Z,1.10
2023-05-08T13:54:22.313Z,0.98
2023-05-08T13:57:25.170Z,1.10
2023-05-08T14:00:28.440Z,1.02
2023-05-08T14:03:31.320Z,0.60
2023-05-08T14:06:33.819Z,1.10
2023-05-08T14:09:36.335Z,0.63
2023-05-08T14:12:39.875Z,0.50
2023-05-08T14:15:42.514Z,1.17
2023-05-08T14:18:44.952Z,1.52
2023-05-08T14:21:47.386Z,1.10
2023-05-08T14:24:49.845Z,1.00
2023-05-08T14:27:52.242Z,1.40
2023-05-08T14:30:54.664Z,1.00
2023-05-08T14:33:57.058Z,1.25
2023-05-08T14:36:59.426Z,1.17
2023-05-08T14:40:02.333Z,1.00
2023-05-08T14:43:05.268Z,1.20
2023-05-08T14:46:07.859Z,1.15
2023-05-08T14:49:10.355Z,0.90
2023-05-08T14:52:12.897Z,1.00
2023-05-08T14:55:20.928Z,0.63
2023-05-08T14:58:23.896Z,1.00
2023-05-08T15:01:26.464Z,0.95
2023-05-08T15:04:29.531Z,1.25
2023-05-08T15:07:31.959Z,1.10
2023-05-08T15:10:34.505Z,1.10
2023-05-08T15:13:36.961Z,1.33
2023-05-08T15:16:39.409Z,0.98
2023-05-08T15:19:42.491Z,1.30
2023-05-08T15:22:45.083Z,0.50
2023-05-08T15:25:47.634Z,1.08
2023-05-08T15:28:51.013Z,1.00
2023-05-08T15:31:53.704Z,1.20
2023-05-08T15:34:56.153Z,0.95
2023-05-08T15:37:58.618Z,0.40
2023-05-08T15:41:01.144Z,0.80
2023-05-08T15:44:03.495Z,0.80
2023-05-08T15:47:05.858Z,0.80
2023-05-08T15:50:10.894Z,0.80
2023-05-08T15:53:13.400Z,0.70
2023-05-08T15:56:16.333Z,0.50
2023-05-08T15:59:18.750Z,0.40
2023-05-08T16:02:21.308Z,0.47
2023-05-08T16:05:23.862Z,0.30
2023-05-08T16:08:26.318Z,0.27
2023-05-08T16:11:33.462Z,0.30
2023-05-08T16:14:38.711Z,0.30
2023-05-08T16:17:41.171Z,0.40
2023-05-08T16:20:43.768Z,0.63
2023-05-08T16:23:46.359Z,0.57
2023-05-08T16:26:48.733Z,0.57
2023-05-08T16:29:51.111Z,0.47
2023-05-08T16:32:53.622Z,0.40
2023-05-08T16:35:56.052Z,0.30
2023-05-08T16:38:59.637Z,0.40
2023-05-08T16:42:02.073Z,0.57
2023-05-08T16:45:05.568Z,0.43
2023-05-08T16:48:08.249Z,0.30
2023-05-08T16:51:10.758Z,0.20
2023-05-08T16:54:14.111Z,0.30
2023-05-08T16:57:16.545Z,0.43
2023-05-08T17:00:19.483Z,0.40
2023-05-08T17:03:22.041Z,0.35
2023-05-08T17:06:24.691Z,0.30
2023-05-08T17:09:27.959Z,0.30
2023-05-08T17:12:30.344Z,0.30
2023-05-08T17:15:33.011Z,0.30
2023-05-08T17:18:35.528Z,0.30
2023-05-08T17:21:38.065Z,0.30
2023-05-08T17:24:40.607Z,0.20
2023-05-08T17:27:42.954Z,0.30
2023-05-08T17:30:46.469Z,0.30
2023-05-08T17:33:49.811Z,0.30
2023-05-08T17:36:53.417Z,0.30
2023-05-08T17:39:57.694Z,0.40
2023-05-08T17:43:00.376Z,0.35
2023-05-08T17:46:03.364Z,0.30
2023-05-08T17:49:05.759Z,0.20
2023-05-08T17:52:08.237Z,0.30
2023-05-08T17:55:10.943Z,0.30
2023-05-08T17:58:13.347Z,0.20
2023-05-08T18:01:15.978Z,0.40
2023-05-08T18:04:18.455Z,0.30
2023-05-08T18:07:21.237Z,0.57
2023-05-08T18:10:36.582Z,0.27
2023-05-08T18:13:38.956Z,0.30
2023-05-08T18:16:41.356Z,0.93
2023-05-08T18:19:43.746Z,0.30
2023-05-08T18:22:47.178Z,0.27
2023-05-08T18:25:49.948Z,0.30
2023-05-08T18:28:52.405Z,0.30
2023-05-08T18:31:55.045Z,0.30
2023-05-08T18:34:57.699Z,0.30
2023-05-08T18:38:00.168Z,0.30
2023-05-08T18:41:04.038Z,0.20
2023-05-08T18:44:06.686Z,0.30
2023-05-08T18:47:09.092Z,0.20
2023-05-08T18:50:11.673Z,0.30
2023-05-08T18:53:14.782Z,0.30
2023-05-08T18:56:19.732Z,0.30
2023-05-08T18:59:22.229Z,0.30
2023-05-08T19:02:27.821Z,0.20
2023-05-08T19:05:30.840Z,0.30
2023-05-08T19:08:33.656Z,0.20
2023-05-08T19:11:36.137Z,0.43
2023-05-08T19:14:38.758Z,0.20
2023-05-08T19:17:41.599Z,0.40
2023-05-08T19:20:44.133Z,0.20
2023-05-08T19:23:46.665Z,0.30
2023-05-08T19:26:49.346Z,0.20
2023-05-08T19:29:51.749Z,0.40
2023-05-08T19:32:54.536Z,0.20
2023-05-08T19:35:57.145Z,0.30
2023-05-08T19:38:59.560Z,0.20
2023-05-08T19:42:02.655Z,0.40
2023-05-08T19:45:05.667Z,0.20
2023-05-08T19:48:13.202Z,0.30
2023-05-08T19:51:20.811Z,0.30
2023-05-08T19:54:23.343Z,0.20
2023-05-08T19:57:26.069Z,0.20
2023-05-08T20:00:28.688Z,0.40
2023-05-08T20:03:31.356Z,0.98
2023-05-08T20:06:33.905Z,0.30
2023-05-08T20:09:37.735Z,0.30
2023-05-08T20:12:40.174Z,0.30
2023-05-08T20:15:42.823Z,0.20
2023-05-08T20:18:46.241Z,0.30
2023-05-08T20:21:48.657Z,0.20
2023-05-08T20:24:51.099Z,0.27
2023-05-08T20:27:53.839Z,0.30
2023-05-08T20:30:56.478Z,0.20
2023-05-08T20:33:59.753Z,0.20
2023-05-08T20:37:03.827Z,0.30
2023-05-08T20:40:06.970Z,0.30
2023-05-08T20:43:10.251Z,0.20
2023-05-08T20:46:12.761Z,0.20
2023-05-08T20:49:17.150Z,0.30
2023-05-08T20:52:19.615Z,0.25
2023-05-08T20:55:22.218Z,0.20
2023-05-08T20:58:24.653Z,0.23
2023-05-08T21:01:27.029Z,0.20
2023-05-08T21:04:29.692Z,0.28
2023-05-08T21:07:32.192Z,0.20
2023-05-08T21:10:34.759Z,0.20
2023-05-08T21:13:37.161Z,0.20
2023-05-08T21:16:39.578Z,0.28
2023-05-08T21:19:42.033Z,0.20
2023-05-08T21:22:46.324Z,0.20
2023-05-08T21:25:51.746Z,0.20
2023-05-08T21:28:54.117Z,0.30
2023-05-08T21:31:56.568Z,0.20
2023-05-08T21:34:59.153Z,0.20
2023-05-08T21:38:01.475Z,0.30
2023-05-08T21:41:08.381Z,0.40
2023-05-08T21:44:12.818Z,0.20
2023-05-08T21:47:15.146Z,0.30
2023-05-08T21:50:17.705Z,0.20
2023-05-08T21:53:20.081Z,0.20
2023-05-08T21:56:22.884Z,0.40
2023-05-08T21:59:25.297Z,0.20
2023-05-08T22:02:27.813Z,0.20
2023-05-08T22:05:30.279Z,0.20
2023-05-08T22:08:32.821Z,0.20
2023-05-08T22:11:35.210Z,0.30
2023-05-08T22:14:37.648Z,0.30
2023-05-08T22:17:40.886Z,0.20
2023-05-08T22:20:43.460Z,0.20
2023-05-08T22:23:45.809Z,0.30
2023-05-08T22:26:48.199Z,0.20
2023-05-08T22:29:50.677Z,0.20
2023-05-08T22:32:55.596Z,0.20
2023-05-08T22:35:58.347Z,0.20
2023-05-08T22:39:01.151Z,0.20
2023-05-08T22:42:03.673Z,0.20
2023-05-08T22:45:06.576Z,0.20
2023-05-08T22:48:10.307Z,0.20
2023-05-08T22:51:12.698Z,0.30
2023-05-08T22:54:15.202Z,0.22
2023-05-08T22:57:17.514Z,0.20
2023-05-08T23:00:20.606Z,0.20
2023-05-08T23:03:23.006Z,0.20
2023-05-08T23:06:25.453Z,0.20
2023-05-08T23:09:27.938Z,0.20
2023-05-08T23:12:30.703Z,0.20
2023-05-08T23:15:33.160Z,0.20
2023-05-08T23:18:35.647Z,0.20
2023-05-08T23:21:38.022Z,0.20
2023-05-08T23:24:40.722Z,0.20
2023-05-08T23:27:43.181Z,0.20
2023-05-08T23:30:45.632Z,0.20
2023-05-08T23:33:48.121Z,0.45
2023-05-08T23:36:50.565Z,0.20
2023-05-08T23:39:52.920Z,0.20
2023-05-08T23:42:56.170Z,0.20
2023-05-08T23:45:58.518Z,0.20
2023-05-08T23:49:01.294Z,0.20
2023-05-08T23:52:03.812Z,0.45
2023-05-08T23:55:06.722Z,0.20
2023-05-08T23:58:09.180Z,0.20
